Time;durP1;ratioP1;P1;durP2;ratioP2;P2;SDS_P1;SDS_P2;PMS_P1;PMS_P2;Temp;Humidity;BMP_temperature;BMP_pressure;BME280_temperature;BME280_humidity;BME280_pressure;Samples;Min_cycle;Max_cycle;Signal;HPM_P1;HPM_P2
2021/06/01 00:00:13;;;;;;;0.98;0.30;;;;;;;-148.58;100.00;55229.56;5035581;28;20032;-57
2021/06/01 00:02:39;;;;;;;0.50;0.40;;;;;;;-148.58;100.00;55229.56;5035324;28;20076;-57
2021/06/01 00:05:06;;;;;;;0.65;0.40;;;;;;;-148.58;100.00;55229.56;5035390;28;20030;-57
2021/06/01 00:07:31;;;;;;;1.02;0.40;;;;;;;-148.58;100.00;55229.56;5035076;28;20037;-57
2021/06/01 00:09:57;;;;;;;0.98;0.40;;;;;;;-148.58;100.00;55229.56;5035409;28;20026;-57
2021/06/01 00:12:22;;;;;;;0.43;0.20;;;;;;;-148.58;100.00;55229.56;5035359;28;20033;-57
2021/06/01 00:14:48;;;;;;;0.93;0.32;;;;;;;-148.58;100.00;55229.56;5035007;28;20024;-58
2021/06/01 00:17:13;;;;;;;0.30;0.20;;;;;;;-148.58;100.00;55229.56;5035301;28;20109;-57
2021/06/01 00:19:39;;;;;;;0.80;0.40;;;;;;;-148.58;100.00;55229.56;5035095;28;20021;-57
2021/06/01 00:22:04;;;;;;;1.27;0.30;;;;;;;-148.58;100.00;55229.56;5034982;28;20038;-57
2021/06/01 00:24:29;;;;;;;0.68;0.20;;;;;;;-148.58;100.00;55229.56;5034989;28;20025;-57
2021/06/01 00:26:55;;;;;;;1.05;0.35;;;;;;;-148.58;100.00;55229.56;5034923;28;20033;-57
2021/06/01 00:29:20;;;;;;;0.55;0.40;;;;;;;-148.58;100.00;55229.56;5035151;28;20043;-57
2021/06/01 00:31:45;;;;;;;1.23;0.50;;;;;;;-148.58;100.00;55229.56;5034862;28;20040;-57
2021/06/01 00:34:11;;;;;;;1.10;0.40;;;;;;;-148.58;100.00;55229.56;5035047;28;20021;-57
2021/06/01 00:36:36;;;;;;;0.88;0.30;;;;;;;-148.58;100.00;55229.56;5034806;28;20025;-57
2021/06/01 00:39:03;;;;;;;0.80;0.30;;;;;;;-148.58;100.00;55229.56;5034840;28;20400;-57
2021/06/01 00:41:28;;;;;;;1.55;0.45;;;;;;;-148.58;100.00;55229.56;5034810;28;20022;-57
2021/06/01 00:43:54;;;;;;;1.58;0.50;;;;;;;-148.58;100.00;55229.56;5034752;28;20021;-56
2021/06/01 00:46:19;;;;;;;0.85;0.40;;;;;;;-148.58;100.00;55229.56;5034746;28;20025;-58
2021/06/01 00:48:44;;;;;;;0.85;0.40;;;;;;;-148.58;100.00;55229.56;5034610;28;20060;-57
2021/06/01 00:51:10;;;;;;;0.75;0.20;;;;;;;-148.58;100.00;55229.56;5034567;28;20152;-57
2021/06/01 00:53:37;;;;;;;0.52;0.22;;;;;;;-148.58;100.00;55229.56;5034476;28;20029;-57
2021/06/01 00:56:04;;;;;;;2.00;0.43;;;;;;;-148.58;100.00;55229.56;5034559;28;20097;-57
2021/06/01 00:58:30;;;;;;;0.43;0.40;;;;;;;-148.58;100.00;55229.56;5034518;28;20460;-58
2021/06/01 01:03:36;;;;;;;0.63;0.32;;;;;;;-148.58;100.00;55229.56;5034639;28;20041;-57
2021/06/01 01:06:08;;;;;;;0.93;0.45;;;;;;;-148.58;100.00;55229.56;5034303;28;20472;-57
2021/06/01 01:08:48;;;;;;;1.00;0.40;;;;;;;-148.58;100.00;55229.56;5034206;28;20384;-58
2021/06/01 01:11:47;;;;;;;0.80;0.32;;;;;;;-148.58;100.00;55229.56;5034642;28;20411;-57
2021/06/01 01:14:33;;;;;;;1.17;0.40;;;;;;;-148.58;100.00;55229.56;4992408;28;20038;-57
2021/06/01 01:17:06;;;;;;;1.02;0.32;;;;;;;-148.58;100.00;55229.56;4992278;28;20548;-57
2021/06/01 01:20:04;;;;;;;1.98;0.40;;;;;;;-148.58;100.00;55229.56;4992479;28;20409;-57
2021/06/01 01:22:32;;;;;;;0.73;0.40;;;;;;;-148.58;100.00;55229.56;4953325;29;20129;-58
2021/06/01 01:25:21;;;;;;;0.77;0.40;;;;;;;-148.58;100.00;55229.56;4953341;29;20090;-57
2021/06/01 01:27:59;;;;;;;0.90;0.47;;;;;;;-148.58;100.00;55229.56;4952466;28;20043;-57
2021/06/01 01:30:29;;;;;;;1.25;0.30;;;;;;;-148.58;100.00;55229.56;4953458;29;20471;-58
2021/06/01 01:33:02;;;;;;;1.50;0.50;;;;;;;-148.58;100.00;55229.56;4953305;29;20483;-57
2021/06/01 01:35:30;;;;;;;0.50;0.40;;;;;;;-148.58;100.00;55229.56;4937244;29;20067;-58
2021/06/01 01:37:59;;;;;;;0.57;0.38;;;;;;;-148.58;100.00;55229.56;4953164;29;20043;-57
2021/06/01 01:40:25;;;;;;;2.42;0.90;;;;;;;-148.58;100.00;55229.56;4953310;29;20031;-57
2021/06/01 01:42:54;;;;;;;1.85;0.30;;;;;;;-148.58;100.00;55229.56;4952900;29;20035;-57
2021/06/01 01:45:28;;;;;;;1.08;0.43;;;;;;;-148.58;100.00;55229.56;4953160;29;20498;-57
2021/06/01 01:50:47;;;;;;;0.85;0.35;;;;;;;-148.58;100.00;55229.56;4979741;28;20482;-57
2021/06/01 01:53:14;;;;;;;0.98;0.32;;;;;;;-148.58;100.00;55229.56;5013782;28;20040;-58
2021/06/01 01:55:42;;;;;;;1.45;0.50;;;;;;;-148.58;100.00;55229.56;5013545;28;20020;-57
2021/06/01 01:58:07;;;;;;;0.40;0.13;;;;;;;-148.58;100.00;55229.56;5013697;28;20029;-57
2021/06/01 02:00:33;;;;;;;0.50;0.28;;;;;;;-148.58;100.00;55229.56;5013384;28;20037;-57
2021/06/01 02:03:01;;;;;;;0.85;0.10;;;;;;;-148.58;100.00;55229.56;5013494;28;20026;-57
2021/06/01 02:05:26;;;;;;;0.85;0.40;;;;;;;-148.58;100.00;55229.56;5013453;28;20057;-57
2021/06/01 02:07:52;;;;;;;0.38;0.20;;;;;;;-148.58;100.00;55229.56;5013402;28;20064;-57
2021/06/01 02:10:18;;;;;;;0.38;0.20;;;;;;;-148.58;100.00;55229.56;5013521;28;20036;-57
2021/06/01 02:12:43;;;;;;;0.73;0.35;;;;;;;-148.58;100.00;55229.56;5013283;28;20029;-57
2021/06/01 02:15:09;;;;;;;1.48;0.40;;;;;;;-148.58;100.00;55229.56;5013317;28;20026;-57
2021/06/01 02:17:34;;;;;;;1.30;0.32;;;;;;;-148.58;100.00;55229.56;5013155;28;20025;-58
2021/06/01 02:20:00;;;;;;;0.77;0.35;;;;;;;-148.58;100.00;55229.56;5014104;28;20504;-57
2021/06/01 02:25:14;;;;;;;0.80;0.15;;;;;;;-148.58;100.00;55229.56;5032911;28;20381;-57
2021/06/01 02:28:01;;;;;;;0.82;0.20;;;;;;;-148.58;100.00;55229.56;5032708;28;20025;-57
2021/06/01 02:30:53;;;;;;;0.38;0.20;;;;;;;-148.58;100.00;55229.56;5032795;28;20349;-57
2021/06/01 02:33:21;;;;;;;0.82;0.40;;;;;;;-148.58;100.00;55229.56;5010721;28;20060;-57
2021/06/01 02:35:48;;;;;;;0.13;0.13;;;;;;;-148.58;100.00;55229.56;5031316;28;20064;-58
2021/06/01 02:38:14;;;;;;;1.25;0.50;;;;;;;-148.58;100.00;55229.56;5032319;28;20376;-57
2021/06/01 02:40:41;;;;;;;1.20;0.30;;;;;;;-148.58;100.00;55229.56;5032297;28;20025;-57
2021/06/01 02:43:10;;;;;;;1.60;0.30;;;;;;;-148.58;100.00;55229.56;5032632;28;20129;-57
2021/06/01 02:45:37;;;;;;;0.25;0.20;;;;;;;-148.58;100.00;55229.56;5032487;28;20022;-58
2021/06/01 02:48:05;;;;;;;0.20;0.20;;;;;;;-148.58;100.00;55229.56;5032727;28;20109;-57
2021/06/01 02:50:30;;;;;;;0.90;0.20;;;;;;;-148.58;100.00;55229.56;5032342;28;20097;-57
2021/06/01 02:52:57;;;;;;;2.05;0.30;;;;;;;-148.58;100.00;55229.56;5032455;28;20049;-57
2021/06/01 02:55:23;;;;;;;0.20;0.20;;;;;;;-148.58;100.00;55229.56;5032695;28;20029;-56
2021/06/01 02:57:49;;;;;;;0.43;0.22;;;;;;;-148.58;100.00;55229.56;5032411;28;20104;-57
2021/06/01 03:00:20;;;;;;;0.20;0.20;;;;;;;-148.58;100.00;55229.56;5032591;28;20095;-57
2021/06/01 03:02:46;;;;;;;0.55;0.30;;;;;;;-148.58;100.00;55229.56;5032296;28;20108;-58
2021/06/01 03:05:12;;;;;;;0.68;0.30;;;;;;;-148.58;100.00;55229.56;5032447;28;20532;-57
2021/06/01 03:07:39;;;;;;;0.20;0.20;;;;;;;-148.58;100.00;55229.56;5032267;28;20029;-57
2021/06/01 03:10:08;;;;;;;1.63;0.45;;;;;;;-148.58;100.00;55229.56;5032491;28;20076;-57
2021/06/01 03:15:00;;;;;;;1.38;0.43;;;;;;;-148.58;100.00;55229.56;5032552;28;20072;-57
2021/06/01 03:17:25;;;;;;;0.52;0.30;;;;;;;-148.58;100.00;55229.56;5032627;28;20376;-57
2021/06/01 03:19:51;;;;;;;0.63;0.20;;;;;;;-148.58;100.00;55229.56;5032212;28;20018;-57
2021/06/01 03:22:16;;;;;;;1.65;0.30;;;;;;;-148.58;100.00;55229.56;5032164;28;20374;-57
2021/06/01 03:24:41;;;;;;;0.82;0.40;;;;;;;-148.58;100.00;55229.56;5032089;28;20051;-57
2021/06/01 03:27:07;;;;;;;0.50;0.30;;;;;;;-148.58;100.00;55229.56;5032437;28;20127;-57
2021/06/01 03:29:32;;;;;;;0.85;0.20;;;;;;;-148.58;100.00;55229.56;5032128;28;20133;-57
2021/06/01 03:31:57;;;;;;;0.47;0.20;;;;;;;-148.58;100.00;55229.56;5032176;28;20031;-57
2021/06/01 03:34:24;;;;;;;0.38;0.10;;;;;;;-148.58;100.00;55229.56;5032299;28;20033;-57
2021/06/01 03:36:49;;;;;;;0.35;0.13;;;;;;;-148.58;100.00;55229.56;5032497;28;20030;-57
2021/06/01 03:39:16;;;;;;;1.17;0.40;;;;;;;-148.58;100.00;55229.56;5032216;28;20063;-57
2021/06/01 03:41:41;;;;;;;0.43;0.38;;;;;;;-148.58;100.00;55229.56;5032272;28;20415;-56
2021/06/01 03:44:06;;;;;;;0.73;0.20;;;;;;;-148.58;100.00;55229.56;5032158;28;20026;-57
2021/06/01 03:46:32;;;;;;;0.22;0.10;;;;;;;-148.58;100.00;55229.56;5031964;28;20121;-57
2021/06/01 03:48:57;;;;;;;0.50;0.10;;;;;;;-148.58;100.00;55229.56;5031937;28;20471;-57
2021/06/01 03:51:22;;;;;;;0.80;0.30;;;;;;;-148.58;100.00;55229.56;5034961;28;20036;-58
2021/06/01 03:53:48;;;;;;;0.10;0.10;;;;;;;-148.58;100.00;55229.56;5035622;28;20116;-57
2021/06/01 03:56:14;;;;;;;0.38;0.10;;;;;;;-148.58;100.00;55229.56;5035758;28;20028;-57
2021/06/01 03:58:40;;;;;;;0.85;0.30;;;;;;;-148.58;100.00;55229.56;5034271;28;20120;-57
2021/06/01 04:01:06;;;;;;;0.85;0.25;;;;;;;-148.58;100.00;55229.56;5035480;28;20642;-57
2021/06/01 04:03:34;;;;;;;1.95;0.20;;;;;;;-148.58;100.00;55229.56;5035544;28;20051;-57
2021/06/01 04:05:59;;;;;;;1.75;0.17;;;;;;;-148.58;100.00;55229.56;5035488;28;20519;-58
2021/06/01 04:08:25;;;;;;;0.85;0.25;;;;;;;-148.58;100.00;55229.56;5035585;28;20029;-57
2021/06/01 04:10:50;;;;;;;2.45;0.20;;;;;;;-148.58;100.00;55229.56;5035197;28;20068;-57
2021/06/01 04:13:15;;;;;;;1.10;0.45;;;;;;;-148.58;100.00;55229.56;5035491;28;20036;-56
2021/06/01 04:15:40;;;;;;;0.43;0.10;;;;;;;-148.58;100.00;55229.56;5035229;28;20416;-58
2021/06/01 04:18:06;;;;;;;0.63;0.20;;;;;;;-148.58;100.00;55229.56;5035633;28;20029;-57
2021/06/01 04:20:31;;;;;;;0.47;0.20;;;;;;;-148.58;100.00;55229.56;5035179;28;20453;-57
2021/06/01 04:22:56;;;;;;;1.27;0.20;;;;;;;-148.58;100.00;55229.56;5035008;28;20057;-57
2021/06/01 04:25:21;;;;;;;0.10;0.10;;;;;;;-148.58;100.00;55229.56;5035213;28;20026;-58
2021/06/01 04:27:47;;;;;;;0.75;0.17;;;;;;;-148.58;100.00;55229.56;5034890;28;20017;-58
2021/06/01 04:30:13;;;;;;;0.45;0.20;;;;;;;-148.58;100.00;55229.56;5035225;28;20029;-57
2021/06/01 04:32:39;;;;;;;0.68;0.17;;;;;;;-148.58;100.00;55229.56;5034935;28;20026;-58
2021/06/01 04:35:04;;;;;;;1.80;0.17;;;;;;;-148.58;100.00;55229.56;5034989;28;20353;-57
2021/06/01 04:37:29;;;;;;;1.10;0.22;;;;;;;-148.58;100.00;55229.56;5034656;28;20261;-58
2021/06/01 04:39:56;;;;;;;0.73;0.15;;;;;;;-148.58;100.00;55229.56;5034754;28;20033;-57
2021/06/01 04:42:21;;;;;;;1.25;0.20;;;;;;;-148.58;100.00;55229.56;5034997;28;20056;-57
2021/06/01 04:44:47;;;;;;;0.75;0.20;;;;;;;-148.58;100.00;55229.56;5034526;28;20111;-58
2021/06/01 04:47:12;;;;;;;0.40;0.20;;;;;;;-148.58;100.00;55229.56;5034832;28;20464;-58
2021/06/01 04:49:37;;;;;;;0.73;0.20;;;;;;;-148.58;100.00;55229.56;5034535;28;20028;-58
2021/06/01 04:52:04;;;;;;;0.45;0.20;;;;;;;-148.58;100.00;55229.56;5034793;28;20075;-57
2021/06/01 04:54:29;;;;;;;0.25;0.10;;;;;;;-148.58;100.00;55229.56;5034601;28;20056;-57
2021/06/01 04:56:54;;;;;;;1.30;0.22;;;;;;;-148.58;100.00;55229.56;5034718;28;20049;-57
2021/06/01 04:59:20;;;;;;;1.55;0.32;;;;;;;-148.58;100.00;55229.56;5034612;28;20411;-57
2021/06/01 05:01:45;;;;;;;0.20;0.00;;;;;;;-148.58;100.00;55229.56;5033432;28;20025;-57
2021/06/01 05:04:11;;;;;;;0.20;0.10;;;;;;;-148.58;100.00;55229.56;5034504;28;20436;-57
2021/06/01 05:06:36;;;;;;;0.38;0.15;;;;;;;-148.58;100.00;55229.56;5034284;28;20025;-57
2021/06/01 05:09:04;;;;;;;0.32;0.10;;;;;;;-148.58;100.00;55229.56;5034385;28;20497;-57
2021/06/01 05:11:30;;;;;;;0.32;0.10;;;;;;;-148.58;100.00;55229.56;5034233;28;20030;-58
2021/06/01 05:13:55;;;;;;;0.57;0.10;;;;;;;-148.58;100.00;55229.56;5034100;28;20021;-57
2021/06/01 05:16:20;;;;;;;0.32;0.10;;;;;;;-148.58;100.00;55229.56;5034295;28;20028;-57
2021/06/01 05:18:46;;;;;;;0.35;0.20;;;;;;;-148.58;100.00;55229.56;5034063;28;20285;-57
2021/06/01 05:21:11;;;;;;;0.17;0.03;;;;;;;-148.58;100.00;55229.56;5034035;28;20025;-57
2021/06/01 05:23:36;;;;;;;0.43;0.03;;;;;;;-148.58;100.00;55229.56;5033739;28;20045;-58
2021/06/01 05:26:02;;;;;;;0.30;0.20;;;;;;;-148.58;100.00;55229.56;5033898;28;20037;-57
2021/06/01 05:28:28;;;;;;;0.30;0.30;;;;;;;-148.58;100.00;55229.56;5033168;28;20037;-57
2021/06/01 05:31:02;;;;;;;0.68;0.20;;;;;;;-148.58;100.00;55229.56;5033980;28;20025;-57
2021/06/01 05:33:31;;;;;;;0.90;0.35;;;;;;;-148.58;100.00;55229.56;5033894;28;20030;-57
2021/06/01 05:35:56;;;;;;;0.55;0.10;;;;;;;-148.58;100.00;55229.56;5033772;28;20028;-57
2021/06/01 05:38:25;;;;;;;0.30;0.10;;;;;;;-148.58;100.00;55229.56;5033832;28;20022;-57
2021/06/01 05:40:52;;;;;;;0.65;0.10;;;;;;;-148.58;100.00;55229.56;5033329;28;20487;-58
2021/06/01 05:43:17;;;;;;;0.25;0.08;;;;;;;-148.58;100.00;55229.56;5033597;28;20033;-57
2021/06/01 05:45:43;;;;;;;0.55;0.10;;;;;;;-148.58;100.00;55229.56;5032856;28;20075;-58
2021/06/01 05:48:10;;;;;;;0.50;0.20;;;;;;;-148.58;100.00;55229.56;5033611;28;20059;-57
2021/06/01 05:50:36;;;;;;;0.20;0.10;;;;;;;-148.58;100.00;55229.56;5033292;28;20483;-57
2021/06/01 05:53:04;;;;;;;0.55;0.20;;;;;;;-148.58;100.00;55229.56;5032224;28;20040;-57
2021/06/01 05:55:29;;;;;;;1.38;0.20;;;;;;;-148.58;100.00;55229.56;5033414;28;20040;-58
2021/06/01 05:57:55;;;;;;;0.40;0.10;;;;;;;-148.58;100.00;55229.56;5033389;28;20037;-57
2021/06/01 06:00:21;;;;;;;1.00;0.30;;;;;;;-148.58;100.00;55229.56;5033084;28;20464;-58
2021/06/01 06:02:47;;;;;;;0.52;0.10;;;;;;;-148.58;100.00;55229.56;5032972;28;20032;-58
2021/06/01 06:05:13;;;;;;;1.75;0.10;;;;;;;-148.58;100.00;55229.56;5033478;28;20022;-57
2021/06/01 06:07:39;;;;;;;0.63;0.00;;;;;;;-148.58;100.00;55229.56;5033053;28;20051;-58
2021/06/01 06:10:05;;;;;;;1.15;0.10;;;;;;;-148.58;100.00;55229.56;5033246;28;20077;-57
2021/06/01 06:12:30;;;;;;;2.00;0.45;;;;;;;-148.58;100.00;55229.56;5032925;28;20021;-58
2021/06/01 06:14:56;;;;;;;0.52;0.10;;;;;;;-148.58;100.00;55229.56;5032946;28;20025;-57
2021/06/01 06:17:46;;;;;;;1.25;0.28;;;;;;;-148.58;100.00;55229.56;5032678;28;20032;-58
2021/06/01 06:20:13;;;;;;;0.25;0.10;;;;;;;-148.58;100.00;55229.56;5030891;28;20400;-58
2021/06/01 06:22:38;;;;;;;1.05;0.20;;;;;;;-148.58;100.00;55229.56;5031196;28;20037;-57
2021/06/01 06:25:09;;;;;;;0.10;0.10;;;;;;;-148.58;100.00;55229.56;5031094;28;20026;-58
2021/06/01 06:27:35;;;;;;;0.10;0.00;;;;;;;-148.58;100.00;55229.56;5031258;28;20032;-58
2021/06/01 06:30:02;;;;;;;0.00;0.00;;;;;;;-148.58;100.00;55229.56;5026367;28;20184;-57
2021/06/01 06:32:27;;;;;;;1.15;0.25;;;;;;;-148.58;100.00;55229.56;5031419;28;20245;-57
2021/06/01 06:34:54;;;;;;;0.28;0.05;;;;;;;-148.58;100.00;55229.56;5030324;28;20025;-57
2021/06/01 06:37:20;;;;;;;1.38;0.10;;;;;;;-148.58;100.00;55229.56;5031805;28;20033;-58
2021/06/01 06:39:45;;;;;;;1.08;0.05;;;;;;;-148.58;100.00;55229.56;5030418;28;20025;-57
2021/06/01 06:42:11;;;;;;;0.55;0.20;;;;;;;-148.58;100.00;55229.56;5032177;28;20530;-57
2021/06/01 06:44:37;;;;;;;0.10;0.10;;;;;;;-148.58;100.00;55229.56;5030914;28;20495;-58
2021/06/01 06:49:35;;;;;;;0.10;0.00;;;;;;;-148.58;100.00;55229.56;5031659;28;20437;-57
2021/06/01 06:52:01;;;;;;;1.30;0.50;;;;;;;-148.58;100.00;55229.56;5031026;28;20036;-57
2021/06/01 06:54:27;;;;;;;0.20;0.10;;;;;;;-148.58;100.00;55229.56;5031973;28;20030;-58
2021/06/01 06:56:52;;;;;;;1.27;0.22;;;;;;;-148.58;100.00;55229.56;5031884;28;20116;-57
2021/06/01 06:59:18;;;;;;;2.30;0.40;;;;;;;-148.58;100.00;55229.56;5031466;28;20032;-57
2021/06/01 07:01:43;;;;;;;1.20;0.50;;;;;;;-148.58;100.00;55229.56;5030776;28;20034;-57
2021/06/01 07:04:08;;;;;;;0.60;0.13;;;;;;;-148.58;100.00;55229.56;5011717;28;20508;-58
2021/06/01 07:06:34;;;;;;;0.47;0.20;;;;;;;-148.58;100.00;55229.56;5023856;28;20033;-58
2021/06/01 07:08:59;;;;;;;0.20;0.10;;;;;;;-148.58;100.00;55229.56;5025619;28;20033;-57
2021/06/01 07:11:24;;;;;;;0.82;0.10;;;;;;;-148.58;100.00;55229.56;5022273;28;20030;-58
2021/06/01 07:13:51;;;;;;;0.38;0.10;;;;;;;-148.58;100.00;55229.56;5019457;28;20025;-58
2021/06/01 07:16:16;;;;;;;0.50;0.10;;;;;;;-148.58;100.00;55229.56;5020568;28;20105;-58
2021/06/01 07:18:42;;;;;;;0.80;0.10;;;;;;;-148.58;100.00;55229.56;5019133;28;20108;-58
2021/06/01 07:21:09;;;;;;;0.28;0.10;;;;;;;-148.58;100.00;55229.56;5018101;28;20038;-59
2021/06/01 07:23:35;;;;;;;0.98;0.10;;;;;;;-148.58;100.00;55229.56;5004729;28;20397;-57
2021/06/01 07:26:02;;;;;;;0.45;0.10;;;;;;;-148.58;100.00;55229.56;5024092;28;20081;-58
2021/06/01 07:28:28;;;;;;;0.88;0.38;;;;;;;-148.58;100.00;55229.56;5022868;28;20029;-57
2021/06/01 07:30:53;;;;;;;0.20;0.10;;;;;;;-148.58;100.00;55229.56;5025109;28;20040;-57
2021/06/01 07:33:18;;;;;;;0.80;0.13;;;;;;;-148.58;100.00;55229.56;5023761;28;20092;-57
2021/06/01 07:35:44;;;;;;;0.30;0.10;;;;;;;-148.58;100.00;55229.56;5028144;28;20017;-57
2021/06/01 07:38:11;;;;;;;0.70;0.20;;;;;;;-148.58;100.00;55229.56;5016107;28;20381;-57
2021/06/01 07:40:40;;;;;;;0.35;0.30;;;;;;;-148.58;100.00;55229.56;5032685;28;20071;-57
2021/06/01 07:43:05;;;;;;;0.43;0.20;;;;;;;-148.58;100.00;55229.56;5035379;28;20040;-57
2021/06/01 07:45:32;;;;;;;0.22;0.10;;;;;;;-148.58;100.00;55229.56;5035278;28;20026;-58
2021/06/01 07:47:57;;;;;;;0.25;0.22;;;;;;;-148.58;100.00;55229.56;5034417;28;20472;-57
2021/06/01 07:50:22;;;;;;;0.77;0.20;;;;;;;-148.58;100.00;55229.56;5035425;28;20061;-58
2021/06/01 07:52:48;;;;;;;0.30;0.15;;;;;;;-148.58;100.00;55229.56;5033427;28;20025;-58
2021/06/01 07:55:13;;;;;;;6.35;5.15;;;;;;;-148.58;100.00;55229.56;5034313;28;20507;-57
2021/06/01 07:57:38;;;;;;;15.40;10.90;;;;;;;-148.58;100.00;55229.56;5034575;28;20392;-58
2021/06/01 08:00:06;;;;;;;19.65;16.50;;;;;;;-148.58;100.00;55229.56;5034751;28;20504;-57
2021/06/01 08:02:31;;;;;;;24.15;17.65;;;;;;;-148.58;100.00;55229.56;5033554;28;20103;-56
2021/06/01 08:04:56;;;;;;;34.15;22.83;;;;;;;-148.58;100.00;55229.56;5033977;28;20536;-57
2021/06/01 08:07:21;;;;;;;36.97;27.13;;;;;;;-148.58;100.00;55229.56;5032908;28;20030;-56
2021/06/01 08:09:48;;;;;;;43.00;33.13;;;;;;;-148.58;100.00;55229.56;5030749;28;20519;-57
2021/06/01 08:12:14;;;;;;;43.58;33.35;;;;;;;-148.58;100.00;55229.56;5029331;28;20029;-57
2021/06/01 08:14:39;;;;;;;33.78;27.65;;;;;;;-148.58;100.00;55229.56;5031113;28;20079;-57
2021/06/01 08:17:04;;;;;;;28.08;24.85;;;;;;;-148.58;100.00;55229.56;5032976;28;20171;-58
2021/06/01 08:19:41;;;;;;;22.50;20.08;;;;;;;-148.58;100.00;55229.56;5033400;28;20032;-57
2021/06/01 08:24:36;;;;;;;14.98;13.18;;;;;;;-148.58;100.00;55229.56;5031208;28;20048;-57
2021/06/01 08:27:02;;;;;;;12.75;11.45;;;;;;;-148.58;100.00;55229.56;5014994;28;20022;-57
2021/06/01 08:29:27;;;;;;;10.27;9.27;;;;;;;-148.58;100.00;55229.56;5027814;28;20032;-57
2021/06/01 08:31:52;;;;;;;10.32;9.25;;;;;;;-148.58;100.00;55229.56;5032546;28;20035;-57
2021/06/01 08:34:18;;;;;;;8.00;7.20;;;;;;;-148.58;100.00;55229.56;5033056;28;20026;-59
2021/06/01 08:36:43;;;;;;;8.27;7.30;;;;;;;-148.58;100.00;55229.56;5031753;28;20033;-57
2021/06/01 08:39:10;;;;;;;7.07;6.38;;;;;;;-148.58;100.00;55229.56;5033333;28;20479;-58
2021/06/01 08:41:36;;;;;;;6.93;6.05;;;;;;;-148.58;100.00;55229.56;5028834;28;20036;-57
2021/06/01 08:44:03;;;;;;;5.97;5.38;;;;;;;-148.58;100.00;55229.56;5034517;28;20025;-57
2021/06/01 08:46:29;;;;;;;5.18;4.70;;;;;;;-148.58;100.00;55229.56;5034271;28;20040;-57
2021/06/01 08:48:55;;;;;;;4.55;4.15;;;;;;;-148.58;100.00;55229.56;5034516;28;20357;-57
2021/06/01 08:51:22;;;;;;;4.40;4.00;;;;;;;-148.58;100.00;55229.56;5034494;28;20030;-57
2021/06/01 08:53:50;;;;;;;3.83;3.53;;;;;;;-148.58;100.00;55229.56;5030046;28;20064;-57
2021/06/01 08:56:16;;;;;;;3.63;3.22;;;;;;;-148.58;100.00;55229.56;5033861;28;20354;-57
2021/06/01 08:58:43;;;;;;;3.65;2.80;;;;;;;-148.58;100.00;55229.56;5032979;28;20021;-58
2021/06/01 09:01:09;;;;;;;3.60;3.30;;;;;;;-148.58;100.00;55229.56;5033706;28;20044;-57
2021/06/01 09:03:35;;;;;;;2.95;2.47;;;;;;;-148.58;100.00;55229.56;5031486;28;20029;-58
2021/06/01 09:08:54;;;;;;;2.58;2.38;;;;;;;-148.58;100.00;55229.56;5025921;28;20037;-57
2021/06/01 09:14:34;;;;;;;2.90;1.83;;;;;;;-148.58;100.00;55229.56;5033880;28;20024;-57
2021/06/01 09:21:02;;;;;;;2.90;1.90;;;;;;;-148.58;100.00;55229.56;5031024;28;20464;-58
2021/06/01 09:22:43;;;;;;;3.72;1.67;;;;;;;-148.58;100.00;55229.56;5032202;28;20048;-57
2021/06/01 09:25:16;;;;;;;1.60;1.20;;;;;;;-148.58;100.00;55229.56;5029065;28;20081;-58
2021/06/01 09:27:59;;;;;;;1.40;1.30;;;;;;;-148.58;100.00;55229.56;5029085;28;20040;-58
2021/06/01 09:30:43;;;;;;;1.38;0.93;;;;;;;-148.58;100.00;55229.56;5029494;28;20029;-58
2021/06/01 09:33:20;;;;;;;2.25;1.08;;;;;;;-148.58;100.00;55229.56;5023303;28;20112;-57
2021/06/01 09:35:53;;;;;;;0.70;0.70;;;;;;;-148.58;100.00;55229.56;5032532;28;20424;-57
2021/06/01 09:38:42;;;;;;;1.13;0.85;;;;;;;-148.58;100.00;55229.56;5033977;28;20031;-57
2021/06/01 09:41:07;;;;;;;1.02;0.93;;;;;;;-148.58;100.00;55229.56;4952990;28;20062;-57
2021/06/01 09:43:35;;;;;;;1.25;1.15;;;;;;;-148.58;100.00;55229.56;4968377;28;20153;-57
2021/06/01 09:46:20;;;;;;;1.80;1.02;;;;;;;-148.58;100.00;55229.56;4967748;28;20041;-57
2021/06/01 09:48:47;;;;;;;1.48;0.82;;;;;;;-148.58;100.00;55229.56;4967395;28;20062;-58
2021/06/01 09:51:23;;;;;;;0.50;0.50;;;;;;;-148.58;100.00;55229.56;4968873;28;20130;-58
2021/06/01 09:53:52;;;;;;;1.23;0.60;;;;;;;-148.58;100.00;55229.56;4969465;28;20054;-57
2021/06/01 09:56:18;;;;;;;0.80;0.80;;;;;;;-148.58;100.00;55229.56;4968104;28;20027;-58
2021/06/01 09:58:43;;;;;;;1.27;0.70;;;;;;;-148.58;100.00;55229.56;4970019;28;20051;-57
2021/06/01 10:01:08;;;;;;;0.68;0.68;;;;;;;-148.58;100.00;55229.56;4969438;28;20042;-57
2021/06/01 10:03:47;;;;;;;0.75;0.70;;;;;;;-148.58;100.00;55229.56;4970678;28;20031;-57
2021/06/01 10:06:12;;;;;;;0.70;0.50;;;;;;;-148.58;100.00;55229.56;4970881;28;20090;-57
2021/06/01 10:08:46;;;;;;;0.50;0.50;;;;;;;-148.58;100.00;55229.56;4970125;28;20039;-57
2021/06/01 10:11:13;;;;;;;2.25;0.50;;;;;;;-148.58;100.00;55229.56;4968436;28;20038;-58
2021/06/01 10:13:40;;;;;;;0.75;0.40;;;;;;;-148.58;100.00;55229.56;4969737;28;20031;-58
2021/06/01 10:16:12;;;;;;;0.38;0.38;;;;;;;-148.58;100.00;55229.56;4969190;28;20030;-57
2021/06/01 10:18:40;;;;;;;0.40;0.40;;;;;;;-148.58;100.00;55229.56;5010466;28;20033;-58
2021/06/01 10:21:08;;;;;;;0.50;0.50;;;;;;;-148.58;100.00;55229.56;5036871;23;20536;-57
2021/06/01 10:23:37;;;;;;;1.50;0.50;;;;;;;-148.58;100.00;55229.56;5013486;28;20030;-57
2021/06/01 10:26:06;;;;;;;1.40;0.43;;;;;;;-148.58;100.00;55229.56;5018458;28;20021;-57
2021/06/01 10:28:42;;;;;;;1.80;0.35;;;;;;;-148.58;100.00;55229.56;5016827;28;20056;-57
2021/06/01 10:31:09;;;;;;;0.50;0.40;;;;;;;-148.58;100.00;55229.56;5015758;28;20044;-57
2021/06/01 10:33:45;;;;;;;0.98;0.30;;;;;;;-148.58;100.00;55229.56;5037827;28;20025;-57
2021/06/01 10:50:41;;;;;;;0.88;0.32;;;;;;;-148.58;100.00;55229.56;5012826;28;20076;-57
2021/06/01 10:53:25;;;;;;;1.67;0.50;;;;;;;-148.58;100.00;55229.56;5012765;28;20030;-57
2021/06/01 10:56:00;;;;;;;0.88;0.30;;;;;;;-148.58;100.00;55229.56;5012710;28;20037;-57
2021/06/01 10:58:49;;;;;;;1.05;0.30;;;;;;;-148.58;100.00;55229.56;5013502;28;20057;-57
2021/06/01 11:04:29;;;;;;;1.27;0.30;;;;;;;-148.58;100.00;55229.56;5032455;28;20125;-57
2021/06/01 11:09:32;;;;;;;0.63;0.30;;;;;;;-148.58;100.00;55229.56;5032474;28;20026;-57
2021/06/01 11:12:20;;;;;;;0.60;0.25;;;;;;;-148.58;100.00;55229.56;5032404;28;20021;-57
2021/06/01 11:14:48;;;;;;;0.85;0.38;;;;;;;-148.58;100.00;55229.56;5030654;28;20030;-57
2021/06/01 11:17:14;;;;;;;1.15;0.50;;;;;;;-148.58;100.00;55229.56;5032405;28;20033;-57
2021/06/01 11:19:58;;;;;;;0.47;0.30;;;;;;;-148.58;100.00;55229.56;5032615;28;20083;-57
2021/06/01 11:22:39;;;;;;;;;;;;;;;-148.58;100.00;55229.56;5013817;28;20053;-57
2021/06/01 11:33:17;;;;;;;1.15;0.30;;;;;;;-148.58;100.00;55229.56;5020732;28;20437;-57
2021/06/01 11:35:47;;;;;;;0.20;0.20;;;;;;;-148.58;100.00;55229.56;5015220;28;20109;-56
2021/06/01 11:38:37;;;;;;;0.28;0.17;;;;;;;-148.58;100.00;55229.56;5042147;28;20456;-57
2021/06/01 11:43:52;;;;;;;0.82;0.30;;;;;;;-148.58;100.00;55229.56;4944627;29;20035;-57
2021/06/01 11:51:44;;;;;;;0.98;0.22;;;;;;;-148.58;100.00;55229.56;4949546;29;20038;-58
2021/06/01 11:54:14;;;;;;;1.25;0.35;;;;;;;-148.58;100.00;55229.56;4940893;29;20034;-57
2021/06/01 11:56:56;;;;;;;0.82;0.35;;;;;;;-148.58;100.00;55229.56;4932202;29;20031;-58
2021/06/01 12:18:37;;;;;;;0.85;0.20;;;;;;;-148.58;100.00;55229.56;4947711;28;20066;-58
2021/06/01 12:21:29;;;;;;;0.40;0.20;;;;;;;-148.58;100.00;55229.56;4971763;28;20042;-58
2021/06/01 12:23:59;;;;;;;1.63;0.43;;;;;;;-148.58;100.00;55229.56;5015225;28;20148;-58
2021/06/01 12:26:32;;;;;;;0.70;0.30;;;;;;;-148.58;100.00;55229.56;5025411;28;20013;-58
2021/06/01 12:32:10;;;;;;;1.67;0.28;;;;;;;-148.58;100.00;55229.56;5026557;28;20072;-60
2021/06/01 12:45:56;;;;;;;0.28;0.10;;;;;;;-148.58;100.00;55229.56;4981577;28;20074;-58
2021/06/01 13:05:56;;;;;;;0.40;0.25;;;;;;;-148.58;100.00;55229.56;4860692;29;20044;-58